Roanoke, AL (36274)

9:06 PM CDT on August 30, 2014 (GMT -0500)
Bacon Level | Change Station
CLOSE
Current Station
Personal Weather Station
Location: Roanoke, AL
Elevation: 791 ft
Nearby Weather Stations

Elev 791 ft 33.14 °N, 85.33 °W | Updated 4 minutes ago

Overcast
Overcast
74.2 °F
Feels Like 72 °F
N
0.0
Wind Variable Wind from North
Gusts 0.0 mph

Today
High -- | Low -- °F
--% Chance of Precip.
Yesterday
High -- | Low -- °F
Precip. -- in
6:14 AM 7:09 PM
Waxing Crescent, 26% visible
Pressure 30.15 in
Visibility 10.0 miles
Clouds Scattered Clouds 2300 ft
Mostly Cloudy 6000 ft
Overcast 9000 ft
Heat Index 72 °F
Dew Point 72 °F
Humidity 91%
Rainfall 0.00 in
Snow Depth Not available.
UV 0 out of 12
Pollen 8.30 out of 12
Air Quality Not available.
Flu Activity Not available.
METAR KLGC 310155Z AUTO 18008G15KT 10SM SCT023 BKN060 OVC090 26/23 A3015 RMK AO2 LTG DSNT NE E AND SW T02550234

More Conditions Fewer Conditions

Pressure 30.15 in
Visibility 10.0 miles
Clouds Scattered Clouds 2300 ft
Mostly Cloudy 6000 ft
Overcast 9000 ft
Heat Index 72 °F
Dew Point 72 °F
Humidity 91%
Rainfall 0.00 in
Snow Depth Not available.
UV 0 out of 12
Pollen 8.30 out of 12
Air Quality Not available.
Flu Activity Not available.
METAR KLGC 310155Z AUTO 18008G15KT 10SM SCT023 BKN060 OVC090 26/23 A3015 RMK AO2 LTG DSNT NE E AND SW T02550234

More Conditions Fewer Conditions

10-Day Weather Forecast

Almanac

Astronomy

Aug. 30, 2014 Rise Set
Actual Time 6:14 AM CDT 7:09 PM CDT
Civil Twilight 5:49 AM CDT 7:34 PM CDT
Nautical Twilight 5:19 AM CDT 8:04 PM CDT
Astronomical Twilight 4:48 AM CDT 8:35 PM CDT
Moon 10:44 AM CDT (8/30) 10:00 PM CDT (8/30)
Length of Visible Light 13h 45m
Length of Day
12h 54m
Tomorrow will be 1m 57s shorter.
Waxing Crescent, 26% of the Moon is Illuminated
Today
Waxing Crescent
Sep 2
First Quarter
Sep 8
Full
Sep 15
Last Quarter
Sep 24
New

Today's Extremes

State Highs State Lows

Community

WunderPhotos

Upload Photos

1,748,725 photos uploaded!

Nearby

Snow Depth

Station Depth Elevation
No new snow has been reported.

Earthquake Activity

City Distance Mag. Time & Date
No recent earthquake activity has been reported nearby.
Minimum magnitude displayed is 2.5.

Coastal Water Temperatures

Place Temperature
No Stations Reporting

Nearby Weather Stations